Time;durP1;ratioP1;P1;durP2;ratioP2;P2;SDS_P1;SDS_P2;PMS_P1;PMS_P2;Temp;Humidity;BMP_temperature;BMP_pressure;BME280_temperature;BME280_humidity;BME280_pressure;Samples;Min_cycle;Max_cycle;Signal;HPM_P1;HPM_P2
2022/05/24 00:01:18;;;;;;;31.10;26.00;;;;;;;19.72;59.06;100003.19;5133811;27;20043;-61
2022/05/24 00:06:16;;;;;;;31.75;26.00;;;;;;;19.62;59.29;99996.13;5132852;27;20103;-60
2022/05/24 00:08:43;;;;;;;34.78;27.33;;;;;;;19.60;58.95;99998.22;5133402;27;20256;-60
2022/05/24 00:11:10;;;;;;;35.20;28.42;;;;;;;19.59;59.18;100001.13;5133335;27;20047;-61
2022/05/24 00:13:37;;;;;;;36.17;28.50;;;;;;;19.56;59.22;99998.78;5133181;27;20054;-60
2022/05/24 00:16:04;;;;;;;37.35;29.48;;;;;;;19.55;59.25;100000.66;5133260;27;20051;-61
2022/05/24 00:18:31;;;;;;;33.20;27.85;;;;;;;19.53;59.21;99991.81;5133274;27;20035;-60
2022/05/24 00:21:00;;;;;;;32.17;26.67;;;;;;;19.52;58.95;99987.41;5132998;27;20070;-61
2022/05/24 00:23:29;;;;;;;37.20;28.05;;;;;;;19.51;59.45;99982.13;5133484;27;20042;-61
2022/05/24 00:26:00;;;;;;;32.72;25.75;;;;;;;19.51;59.22;99982.97;5133583;27;20039;-61
2022/05/24 00:28:29;;;;;;;33.88;27.77;;;;;;;19.50;58.95;99981.28;5133379;27;20035;-60
2022/05/24 00:30:55;;;;;;;35.25;25.75;;;;;;;19.51;59.45;99985.69;5131393;27;20040;-61
2022/05/24 00:33:22;;;;;;;32.20;25.98;;;;;;;19.50;58.84;99985.88;5132770;27;20039;-61
2022/05/24 00:35:50;;;;;;;35.15;26.00;;;;;;;19.51;59.16;99993.00;5133624;27;20050;-61
2022/05/24 00:38:36;;;;;;;30.88;23.58;;;;;;;19.51;58.83;99999.28;5132796;27;20062;-60
2022/05/24 00:41:14;;;;;;;32.58;23.42;;;;;;;19.48;58.90;100002.41;5132994;27;20039;-60
2022/05/24 00:44:16;;;;;;;24.23;20.88;;;;;;;19.46;59.00;100001.75;5132693;27;20050;-62
2022/05/24 00:46:58;;;;;;;26.13;20.17;;;;;;;19.44;58.76;100001.06;5132643;27;20041;-60
2022/05/24 00:49:37;;;;;;;25.45;19.35;;;;;;;19.43;58.85;99995.81;5132904;27;20348;-60
2022/05/24 00:52:17;;;;;;;21.17;17.20;;;;;;;19.37;58.98;99991.97;5132732;27;20039;-61
2022/05/24 00:54:50;;;;;;;25.65;15.73;;;;;;;19.34;58.74;99992.34;5115070;27;20046;-61
2022/05/24 00:57:30;;;;;;;18.67;14.95;;;;;;;19.29;58.71;99998.31;5132968;27;20418;-61
2022/05/24 01:00:15;;;;;;;22.02;16.10;;;;;;;19.25;58.84;99994.28;5132227;27;20433;-61
2022/05/24 01:02:43;;;;;;;22.38;14.85;;;;;;;19.23;58.66;99990.03;5132001;27;20035;-60
2022/05/24 01:05:23;;;;;;;18.30;13.93;;;;;;;19.20;58.62;99995.84;5132451;27;20561;-60
2022/05/24 01:07:50;;;;;;;19.05;14.07;;;;;;;19.20;58.45;99999.44;5132577;27;20039;-60
2022/05/24 01:10:30;;;;;;;18.25;14.00;;;;;;;19.18;58.46;99998.75;5132675;27;20035;-60
2022/05/24 01:13:05;;;;;;;18.65;13.98;;;;;;;19.19;58.76;100007.78;5132233;27;20039;-61
2022/05/24 01:15:32;;;;;;;22.80;14.23;;;;;;;19.18;58.63;100008.81;5132223;27;20039;-61
2022/05/24 01:17:59;;;;;;;19.50;13.20;;;;;;;19.12;58.34;99994.06;5131633;27;20039;-60
2022/05/24 01:20:27;;;;;;;17.75;13.18;;;;;;;19.07;58.31;99980.16;5132301;27;20046;-61
2022/05/24 01:23:19;;;;;;;18.77;13.65;;;;;;;18.99;58.23;99983.81;5132155;27;20431;-60
2022/05/24 01:25:56;;;;;;;17.50;13.13;;;;;;;18.94;58.11;99983.50;5132178;27;20489;-60
2022/05/24 01:28:44;;;;;;;15.73;12.80;;;;;;;18.89;58.57;99980.50;5132124;27;20061;-60
2022/05/24 01:31:11;;;;;;;16.90;12.85;;;;;;;18.87;58.11;99990.72;5132684;27;20124;-60
2022/05/24 01:36:28;;;;;;;18.98;12.07;;;;;;;18.80;58.14;99987.03;5132107;28;20039;-60
2022/05/24 01:39:02;;;;;;;15.93;11.38;;;;;;;18.75;58.19;99980.47;5132001;28;20520;-61
2022/05/24 01:41:46;;;;;;;15.80;10.52;;;;;;;18.75;58.21;99992.19;5133745;27;20039;-61
2022/05/24 01:44:24;;;;;;;16.70;10.23;;;;;;;18.70;58.11;99987.28;5136382;27;20039;-61
2022/05/24 01:46:51;;;;;;;14.98;9.93;;;;;;;18.70;58.05;99989.16;5136544;27;20039;-61
2022/05/24 01:49:27;;;;;;;11.43;8.60;;;;;;;18.67;57.93;99995.81;5135787;27;20050;-61
2022/05/24 01:52:13;;;;;;;14.48;8.95;;;;;;;18.67;57.98;100003.13;5135944;27;20070;-61
2022/05/24 01:54:50;;;;;;;13.18;9.23;;;;;;;18.63;57.76;99999.09;5135686;27;20047;-61
2022/05/24 01:57:21;;;;;;;16.38;9.57;;;;;;;18.60;57.53;99996.69;5135895;27;20406;-61
2022/05/24 01:59:51;;;;;;;13.73;8.55;;;;;;;18.54;57.76;99991.94;5135880;27;20050;-60
2022/05/24 02:02:17;;;;;;;12.70;8.45;;;;;;;18.44;57.26;99992.19;5135996;27;20036;-60
2022/05/24 02:04:48;;;;;;;12.43;8.38;;;;;;;18.37;57.49;99991.22;5128115;27;20051;-60
2022/05/24 02:07:19;;;;;;;15.50;7.80;;;;;;;18.31;57.57;99995.50;5134953;27;20051;-60
2022/05/24 02:09:48;;;;;;;12.40;7.85;;;;;;;18.29;57.66;99997.56;5135804;27;20039;-61
2022/05/24 02:12:30;;;;;;;11.75;7.65;;;;;;;18.28;57.64;99987.72;5135849;27;20374;-61
2022/05/24 02:15:13;;;;;;;11.38;7.80;;;;;;;18.27;57.81;99988.72;5135190;27;20035;-60
2022/05/24 02:17:49;;;;;;;11.75;6.75;;;;;;;18.25;57.50;99988.06;5135591;27;20365;-61
2022/05/24 02:20:22;;;;;;;8.93;6.10;;;;;;;18.17;57.71;99993.56;5117114;27;20046;-62
2022/05/24 02:22:48;;;;;;;9.95;5.80;;;;;;;18.14;57.50;100009.38;5134903;27;20039;-61
2022/05/24 02:25:24;;;;;;;8.40;5.40;;;;;;;18.10;57.84;100017.03;5135698;27;20390;-61
2022/05/24 02:27:51;;;;;;;9.65;5.82;;;;;;;18.07;57.71;100022.81;5117980;27;20552;-61
2022/05/24 02:30:21;;;;;;;12.05;6.32;;;;;;;18.04;57.66;100013.16;5135249;27;20049;-61
2022/05/24 02:32:48;;;;;;;17.92;6.32;;;;;;;17.99;57.41;100001.97;5135163;27;20035;-61
2022/05/24 02:35:15;;;;;;;13.07;6.10;;;;;;;17.94;57.34;100009.81;5135251;27;20063;-61
2022/05/24 02:37:41;;;;;;;10.40;5.63;;;;;;;17.93;57.34;100009.97;5135176;27;20416;-61
2022/05/24 02:42:54;;;;;;;8.98;4.57;;;;;;;17.84;57.30;100016.47;5135679;27;20355;-61
2022/05/24 02:45:22;;;;;;;9.57;5.07;;;;;;;17.76;57.38;100020.88;5135492;27;20050;-61
2022/05/24 02:47:49;;;;;;;8.63;5.30;;;;;;;17.73;57.46;100015.81;5135269;27;20039;-60
2022/05/24 02:50:16;;;;;;;9.30;4.95;;;;;;;17.72;57.19;100015.97;5134519;27;20054;-61
2022/05/24 02:52:43;;;;;;;8.98;4.60;;;;;;;17.68;57.45;100012.75;5133795;27;20031;-61
2022/05/24 02:55:11;;;;;;;10.52;4.65;;;;;;;17.68;57.58;100020.91;5134949;27;20443;-61
2022/05/24 02:57:40;;;;;;;9.73;4.80;;;;;;;17.65;57.30;100013.09;5134640;27;20047;-61
2022/05/24 03:00:13;;;;;;;9.30;4.50;;;;;;;17.65;57.71;100012.22;5134287;27;20040;-61
2022/05/24 03:02:42;;;;;;;6.22;3.95;;;;;;;17.64;57.59;100010.53;5134739;27;20039;-61
2022/05/24 03:05:12;;;;;;;8.43;4.15;;;;;;;17.61;57.38;100006.31;5134548;27;20054;-60
2022/05/24 03:10:25;;;;;;;;;;;;;;;17.61;57.79;99998.16;5135150;27;20051;-60
2022/05/24 03:15:40;;;;;;;5.10;3.70;;;;;;;17.64;57.40;99992.38;5134632;27;20055;-60
2022/05/24 03:18:09;;;;;;;8.10;4.00;;;;;;;17.64;57.48;100000.53;5134929;27;20039;-61
2022/05/24 03:20:35;;;;;;;10.75;4.80;;;;;;;17.63;57.64;100008.84;5133945;27;20054;-60
2022/05/24 03:23:03;;;;;;;6.88;3.83;;;;;;;17.59;57.59;100008.34;5134077;27;20466;-60
2022/05/24 03:25:34;;;;;;;6.35;3.53;;;;;;;17.55;57.17;100020.59;5134282;27;20059;-60
2022/05/24 03:28:03;;;;;;;6.75;3.55;;;;;;;17.56;57.70;100016.00;5134263;27;20051;-61
2022/05/24 03:30:32;;;;;;;9.68;3.90;;;;;;;17.54;57.61;100018.03;5134203;27;20413;-62
2022/05/24 03:32:59;;;;;;;8.32;3.92;;;;;;;17.54;57.37;100027.03;5134488;27;20046;-61
2022/05/24 03:35:25;;;;;;;9.57;4.20;;;;;;;17.56;57.50;100025.00;5133858;27;20036;-60
2022/05/24 03:37:53;;;;;;;8.88;4.07;;;;;;;17.57;57.75;100018.53;5113719;28;20141;-61
2022/05/24 03:40:19;;;;;;;9.57;3.92;;;;;;;17.58;57.59;100019.38;5113572;28;20048;-61
2022/05/24 03:42:47;;;;;;;9.27;4.53;;;;;;;17.59;57.40;100010.22;5113568;28;20048;-60
2022/05/24 03:45:18;;;;;;;5.63;3.70;;;;;;;17.61;57.56;100011.75;5113368;28;20092;-61
2022/05/24 03:47:45;;;;;;;8.45;4.10;;;;;;;17.64;57.21;100008.66;5113220;28;20051;-60
2022/05/24 03:50:11;;;;;;;7.45;3.80;;;;;;;17.66;57.82;100017.53;5126376;27;20096;-61
2022/05/24 03:52:38;;;;;;;9.18;3.72;;;;;;;17.69;57.78;100032.63;5133356;27;20439;-60
2022/05/24 03:55:08;;;;;;;8.77;4.18;;;;;;;17.71;57.40;100033.28;5133724;27;20051;-61
2022/05/24 04:00:23;;;;;;;10.63;4.72;;;;;;;17.77;57.46;100030.72;5131830;27;20493;-60
2022/05/24 04:02:49;;;;;;;8.80;4.22;;;;;;;17.79;57.80;100034.09;5133424;27;20035;-61
2022/05/24 04:05:18;;;;;;;9.00;4.90;;;;;;;17.77;57.67;100030.72;5114773;27;20043;-60
2022/05/24 04:07:44;;;;;;;9.57;4.85;;;;;;;17.73;57.44;100023.94;5132671;27;20039;-61
2022/05/24 04:10:13;;;;;;;11.25;5.10;;;;;;;17.70;57.18;100043.31;5132822;27;20043;-61
2022/05/24 04:12:40;;;;;;;7.93;4.95;;;;;;;17.70;57.23;100064.19;5133172;27;20041;-60
2022/05/24 04:15:07;;;;;;;8.73;5.18;;;;;;;17.67;57.66;100057.22;5133320;27;20039;-62
2022/05/24 04:17:36;;;;;;;10.13;5.38;;;;;;;17.64;57.64;100067.56;5132878;27;20462;-60
2022/05/24 04:20:04;;;;;;;16.42;6.75;;;;;;;17.61;57.54;100067.91;5133198;27;20061;-61
2022/05/24 04:22:31;;;;;;;11.73;5.65;;;;;;;17.60;57.58;100087.94;5132849;27;20039;-60
2022/05/24 04:24:57;;;;;;;10.55;5.65;;;;;;;17.57;57.64;100088.28;5132679;27;20039;-60
2022/05/24 04:27:24;;;;;;;12.80;5.85;;;;;;;17.55;57.64;100076.75;5132859;27;20050;-61
2022/05/24 04:29:53;;;;;;;12.05;6.57;;;;;;;17.53;57.53;100071.50;5114867;27;20047;-61
2022/05/24 04:32:21;;;;;;;13.18;6.70;;;;;;;17.51;57.81;100040.94;5132625;27;20463;-61
2022/05/24 04:34:49;;;;;;;10.45;6.38;;;;;;;17.52;57.66;100030.94;5132889;27;20039;-60
2022/05/24 04:37:17;;;;;;;11.40;6.75;;;;;;;17.50;57.61;100024.84;5132960;27;20043;-61
2022/05/24 04:39:44;;;;;;;11.15;6.95;;;;;;;17.50;57.86;100052.84;5132749;27;20049;-60
2022/05/24 04:42:21;;;;;;;13.60;6.97;;;;;;;17.50;57.85;100066.41;5132327;27;20039;-60
2022/05/24 04:45:00;;;;;;;10.43;6.88;;;;;;;17.51;57.90;100089.81;5132709;27;20118;-60
2022/05/24 04:47:29;;;;;;;14.10;7.65;;;;;;;17.52;57.70;100088.78;5133156;27;20491;-60
2022/05/24 04:49:58;;;;;;;14.55;6.97;;;;;;;17.51;57.71;100100.69;5132030;27;20390;-61
2022/05/24 04:52:32;;;;;;;13.23;6.07;;;;;;;17.50;57.71;100096.28;5131960;27;20049;-61
2022/05/24 04:55:01;;;;;;;7.65;5.78;;;;;;;17.50;57.57;100092.69;5132118;27;20039;-61
2022/05/24 04:57:30;;;;;;;11.27;6.50;;;;;;;17.53;57.73;100087.78;5132556;27;20039;-60
2022/05/24 04:59:57;;;;;;;14.00;6.47;;;;;;;17.55;57.64;100084.88;5132386;27;20046;-61
2022/05/24 05:02:24;;;;;;;11.70;6.10;;;;;;;17.57;57.95;100072.00;5132072;27;20415;-61
2022/05/24 05:04:52;;;;;;;12.57;5.57;;;;;;;17.59;57.81;100078.09;5132438;27;20047;-60
2022/05/24 05:07:21;;;;;;;9.88;4.80;;;;;;;17.59;57.71;100084.38;5132015;27;20046;-60
2022/05/24 05:09:50;;;;;;;10.68;5.30;;;;;;;17.59;57.78;100092.53;5132309;27;20058;-60
2022/05/24 05:12:18;;;;;;;8.73;4.13;;;;;;;17.59;57.59;100106.09;5131887;27;20163;-60
2022/05/24 05:14:45;;;;;;;9.50;4.82;;;;;;;17.60;57.70;100121.38;5132173;27;20088;-60
2022/05/24 05:17:13;;;;;;;7.00;4.20;;;;;;;17.61;57.63;100135.78;5130809;27;20142;-60
2022/05/24 05:19:40;;;;;;;9.18;4.05;;;;;;;17.62;57.71;100141.06;5132257;27;20046;-61
2022/05/24 05:22:07;;;;;;;6.38;3.58;;;;;;;17.62;57.93;100135.63;5132021;27;20031;-61
2022/05/24 05:24:36;;;;;;;11.48;4.57;;;;;;;17.64;57.63;100140.88;5131755;27;20099;-60
2022/05/24 05:27:04;;;;;;;9.60;3.88;;;;;;;17.63;57.63;100133.75;5132600;27;20504;-60
2022/05/24 05:32:26;;;;;;;8.80;3.60;;;;;;;17.59;57.42;100135.97;5132313;27;20130;-60
2022/05/24 05:34:59;;;;;;;7.07;3.17;;;;;;;17.58;57.44;100134.25;5132245;27;20047;-61
2022/05/24 05:37:30;;;;;;;8.25;3.47;;;;;;;17.56;57.76;100136.31;5131454;27;20485;-61
2022/05/24 05:39:57;;;;;;;9.77;3.92;;;;;;;17.55;57.54;100128.34;5131986;28;20388;-60
2022/05/24 05:42:24;;;;;;;10.00;3.83;;;;;;;17.54;57.64;100126.63;5131838;28;20077;-60
2022/05/24 05:44:51;;;;;;;8.32;3.63;;;;;;;17.53;57.36;100120.34;5131589;28;20059;-60
2022/05/24 05:47:18;;;;;;;10.88;4.25;;;;;;;17.54;57.76;100130.19;5132204;28;20043;-60
2022/05/24 05:49:46;;;;;;;7.00;3.50;;;;;;;17.53;57.68;100136.66;5131901;28;20047;-59
2022/05/24 05:52:15;;;;;;;8.07;3.95;;;;;;;17.53;57.33;100127.66;5131742;28;20096;-60
2022/05/24 05:54:41;;;;;;;8.15;3.25;;;;;;;17.52;57.40;100129.53;5130823;28;20037;-61
2022/05/24 05:57:10;;;;;;;6.78;4.25;;;;;;;17.52;57.53;100132.25;5131593;28;20035;-60
2022/05/24 05:59:37;;;;;;;8.32;3.13;;;;;;;17.56;57.82;100149.03;5132125;28;20035;-60
2022/05/24 06:02:05;;;;;;;10.32;4.22;;;;;;;17.58;57.68;100150.56;5132121;28;20496;-60
2022/05/24 06:04:34;;;;;;;11.30;3.35;;;;;;;17.62;57.57;100167.34;5132136;28;20039;-60
2022/05/24 06:07:00;;;;;;;6.85;3.08;;;;;;;17.65;57.66;100161.59;5131275;28;20373;-60
2022/05/24 06:09:26;;;;;;;6.57;3.28;;;;;;;17.68;57.27;100177.56;5131721;28;20054;-60
2022/05/24 06:11:57;;;;;;;6.10;3.38;;;;;;;17.71;57.16;100182.66;5131312;28;20415;-61
2022/05/24 06:14:26;;;;;;;8.95;2.80;;;;;;;17.67;57.28;100182.16;5125036;28;20044;-60
2022/05/24 06:17:17;;;;;;;4.85;2.83;;;;;;;17.66;57.04;100180.44;5117716;28;20036;-60
2022/05/24 06:19:45;;;;;;;7.25;3.25;;;;;;;17.69;57.38;100188.25;5113496;28;20040;-61
2022/05/24 06:22:11;;;;;;;10.82;3.38;;;;;;;17.72;56.95;100185.19;5116843;28;20039;-60
2022/05/24 06:24:41;;;;;;;10.07;3.13;;;;;;;17.73;56.95;100181.47;5128638;28;20032;-60
2022/05/24 06:27:09;;;;;;;8.40;3.45;;;;;;;17.74;57.13;100187.75;5129122;27;20039;-60
2022/05/24 06:29:36;;;;;;;11.55;3.78;;;;;;;17.74;57.26;100190.47;5116360;27;20031;-60
2022/05/24 06:32:03;;;;;;;7.35;3.63;;;;;;;17.74;57.27;100190.47;5134104;27;20050;-60
2022/05/24 06:34:31;;;;;;;7.78;2.58;;;;;;;17.72;56.84;100206.94;5134204;27;20023;-60
2022/05/24 06:36:58;;;;;;;6.28;3.10;;;;;;;17.70;56.80;100202.69;5134418;27;20056;-60
2022/05/24 06:39:27;;;;;;;5.47;2.90;;;;;;;17.69;56.99;100215.41;5134459;27;20035;-60
2022/05/24 06:41:59;;;;;;;6.88;2.80;;;;;;;17.73;56.79;100213.19;5134582;27;20039;-60
2022/05/24 06:44:28;;;;;;;8.02;2.60;;;;;;;17.78;57.36;100208.09;5133512;27;20035;-60
2022/05/24 06:46:55;;;;;;;6.03;2.83;;;;;;;17.85;57.08;100221.88;5134159;27;20055;-60
2022/05/24 06:49:21;;;;;;;5.90;3.20;;;;;;;17.93;56.93;100220.00;5134412;27;20036;-60
2022/05/24 06:51:48;;;;;;;5.45;2.70;;;;;;;18.00;56.75;100221.00;5134628;27;20035;-60
2022/05/24 06:54:18;;;;;;;6.82;3.20;;;;;;;18.10;57.03;100221.69;5134788;27;20046;-60
2022/05/24 06:56:45;;;;;;;7.38;2.30;;;;;;;18.24;56.82;100228.28;5134939;27;20039;-60
2022/05/24 07:04:45;;;;;;;3.67;2.25;;;;;;;18.60;56.59;100241.44;5134171;27;20057;-60
2022/05/24 07:07:12;;;;;;;5.65;2.10;;;;;;;18.65;56.04;100239.94;5134520;27;20046;-60
2022/05/24 07:09:40;;;;;;;7.60;2.60;;;;;;;18.75;56.44;100238.88;5134428;27;20039;-60
2022/05/24 07:12:07;;;;;;;7.47;2.75;;;;;;;18.84;56.20;100243.25;5133877;27;20051;-60
2022/05/24 07:14:36;;;;;;;8.75;3.45;;;;;;;18.93;56.16;100244.91;5134296;27;20055;-61
2022/05/24 07:17:03;;;;;;;7.07;2.38;;;;;;;18.97;55.58;100244.38;5133770;27;20042;-60
2022/05/24 07:19:32;;;;;;;6.53;2.67;;;;;;;18.97;55.21;100251.69;5134409;27;20047;-60
2022/05/24 07:21:58;;;;;;;7.15;2.60;;;;;;;18.98;55.39;100258.84;5133959;27;20049;-60
2022/05/24 07:24:27;;;;;;;5.38;2.35;;;;;;;19.08;55.34;100266.78;5134286;27;20113;-59
2022/05/24 07:26:54;;;;;;;4.43;2.08;;;;;;;19.24;55.41;100264.81;5134246;27;20100;-60
2022/05/24 07:29:22;;;;;;;4.20;1.83;;;;;;;19.37;54.88;100269.69;5134444;27;20035;-60
2022/05/24 07:31:49;;;;;;;7.65;2.38;;;;;;;19.53;55.13;100266.06;5133502;27;20598;-60
2022/05/24 07:34:20;;;;;;;6.13;2.20;;;;;;;19.64;54.72;100265.63;5133724;27;20031;-60
2022/05/24 07:36:46;;;;;;;4.45;1.90;;;;;;;19.68;54.34;100267.81;5133439;27;20035;-60
2022/05/24 07:39:13;;;;;;;6.10;2.28;;;;;;;19.72;53.79;100276.47;5133265;27;20039;-60
2022/05/24 07:47:34;;;;;;;5.70;1.67;;;;;;;19.60;52.77;100275.19;5133920;27;20047;-60
2022/05/24 07:50:01;;;;;;;3.80;1.65;;;;;;;19.54;52.73;100282.22;5133870;27;20039;-60
2022/05/24 07:52:27;;;;;;;5.47;1.70;;;;;;;19.54;52.29;100284.94;5133148;27;20395;-60
2022/05/24 07:54:58;;;;;;;8.45;1.85;;;;;;;19.54;52.70;100284.94;5133385;27;20041;-60
2022/05/24 07:57:24;;;;;;;6.95;2.00;;;;;;;19.55;52.30;100286.63;5133292;27;20410;-60
2022/05/24 07:59:51;;;;;;;6.38;2.42;;;;;;;19.56;52.44;100282.03;5133932;27;20035;-59
2022/05/24 08:02:19;;;;;;;4.03;2.05;;;;;;;19.62;52.49;100289.47;5133669;27;20047;-60
2022/05/24 08:04:52;;;;;;;3.35;2.30;;;;;;;19.67;52.49;100282.47;5133685;27;20027;-59
2022/05/24 08:07:20;;;;;;;6.15;2.15;;;;;;;19.75;52.11;100283.44;5133313;27;20050;-60
2022/05/24 08:09:46;;;;;;;5.07;1.77;;;;;;;19.83;52.27;100288.81;5133294;27;20515;-60
2022/05/24 08:12:13;;;;;;;4.07;1.65;;;;;;;19.91;52.11;100289.59;5133516;27;20043;-60
2022/05/24 08:14:39;;;;;;;6.28;2.38;;;;;;;19.95;52.24;100290.06;5132985;27;20051;-60
2022/05/24 08:17:06;;;;;;;5.95;2.40;;;;;;;20.01;52.18;100283.88;5132970;27;20045;-60
2022/05/24 08:19:36;;;;;;;4.47;2.92;;;;;;;20.08;51.74;100289.47;5115533;27;20096;-60
2022/05/24 08:22:03;;;;;;;6.63;2.53;;;;;;;20.17;51.98;100296.56;5133415;27;20393;-60
2022/05/24 08:24:30;;;;;;;9.35;3.20;;;;;;;20.24;51.47;100301.09;5132767;27;20503;-61
2022/05/24 08:26:56;;;;;;;6.00;3.33;;;;;;;20.28;51.29;100290.66;5133102;27;20040;-60
2022/05/24 08:29:23;;;;;;;2.83;2.20;;;;;;;20.31;51.42;100288.41;5114505;27;20488;-59
2022/05/24 08:31:49;;;;;;;6.78;1.80;;;;;;;20.36;51.20;100293.31;5114552;27;20057;-59
2022/05/24 08:34:20;;;;;;;5.38;2.20;;;;;;;20.44;50.68;100300.59;5132735;27;20488;-60
2022/05/24 08:36:47;;;;;;;5.03;2.92;;;;;;;20.50;51.07;100302.56;5132073;27;20457;-60
2022/05/24 08:39:13;;;;;;;3.70;2.05;;;;;;;20.54;50.70;100312.91;5132526;27;20042;-60
2022/05/24 08:42:23;;;;;;;4.60;2.08;;;;;;;20.59;50.82;100315.94;5132747;27;20046;-60
2022/05/24 08:48:27;;;;;;;6.03;3.20;;;;;;;20.67;50.02;100314.16;5132093;27;20035;-61
2022/05/24 08:51:01;;;;;;;5.78;3.30;;;;;;;20.69;50.21;100317.53;5131498;27;20113;-60
2022/05/24 08:53:42;;;;;;;8.15;3.00;;;;;;;20.77;50.52;100315.56;5132448;27;20035;-60
2022/05/24 08:56:20;;;;;;;4.35;3.20;;;;;;;20.90;50.29;100323.13;5132635;27;20050;-61
2022/05/24 08:58:50;;;;;;;4.65;3.55;;;;;;;21.06;50.33;100327.53;5132502;27;20046;-61
2022/05/24 09:01:32;;;;;;;5.67;5.13;;;;;;;21.19;50.35;100328.56;5132555;27;20111;-61
2022/05/24 09:04:05;;;;;;;5.80;4.45;;;;;;;21.24;50.18;100344.41;5132075;27;20039;-61
2022/05/24 09:06:54;;;;;;;7.00;5.22;;;;;;;21.21;49.55;100344.75;5131992;27;20131;-60
2022/05/24 09:09:43;;;;;;;6.20;4.45;;;;;;;21.11;49.32;100346.94;5132402;27;20294;-60
2022/05/24 09:12:37;;;;;;;4.60;3.58;;;;;;;21.02;49.14;100357.09;5131708;27;20043;-60
2022/05/24 09:15:36;;;;;;;5.15;3.05;;;;;;;20.92;48.96;100362.00;5113860;27;20039;-61
2022/05/24 09:18:12;;;;;;;3.50;2.75;;;;;;;20.83;48.72;100368.59;5131971;27;20065;-60
2022/05/24 09:20:42;;;;;;;7.45;3.83;;;;;;;20.71;48.90;100359.97;5131792;27;20038;-60
2022/05/24 09:23:17;;;;;;;4.47;3.20;;;;;;;20.65;48.89;100365.34;5131755;27;20039;-61
2022/05/24 09:26:03;;;;;;;6.97;3.28;;;;;;;20.59;48.92;100380.56;5132127;27;20111;-61
2022/05/24 09:28:50;;;;;;;7.20;3.60;;;;;;;20.58;48.95;100377.00;5131865;27;20039;-61
2022/05/24 09:31:31;;;;;;;6.78;3.78;;;;;;;20.63;49.08;100373.72;5131708;27;20055;-61
2022/05/24 09:34:19;;;;;;;5.38;3.60;;;;;;;20.69;48.65;100372.13;5131313;27;20041;-61
2022/05/24 09:37:04;;;;;;;2.88;2.35;;;;;;;20.72;48.45;100371.75;5131880;27;20043;-61
2022/05/24 09:39:30;;;;;;;4.35;2.47;;;;;;;20.72;48.39;100385.38;5131800;27;20043;-61
2022/05/24 09:41:58;;;;;;;4.43;2.53;;;;;;;20.69;48.61;100389.34;5132156;28;20392;-61
2022/05/24 09:44:49;;;;;;;3.88;2.03;;;;;;;20.67;48.34;100388.66;5132291;28;20036;-61
2022/05/24 09:47:23;;;;;;;4.65;2.45;;;;;;;20.71;48.39;100395.44;5131079;28;20043;-61
2022/05/24 09:49:50;;;;;;;3.72;2.90;;;;;;;20.77;48.76;100396.59;5131753;28;20155;-61
2022/05/24 09:52:17;;;;;;;6.85;3.40;;;;;;;20.80;48.02;100405.25;5131504;28;20063;-61
2022/05/24 09:54:58;;;;;;;4.57;3.70;;;;;;;20.81;48.13;100406.13;5131197;28;20174;-61
2022/05/24 09:57:32;;;;;;;9.55;4.20;;;;;;;20.87;47.82;100408.97;5131782;28;20388;-61
2022/05/24 10:00:12;;;;;;;7.63;4.78;;;;;;;21.01;48.05;100414.63;5131473;28;20043;-61
2022/05/24 10:02:39;;;;;;;6.05;4.47;;;;;;;21.11;47.60;100420.66;5133474;27;20047;-62
2022/05/24 10:05:22;;;;;;;5.25;4.75;;;;;;;21.15;47.52;100421.97;5135516;27;20442;-60
2022/05/24 10:08:01;;;;;;;9.50;6.22;;;;;;;21.23;47.88;100430.97;5135573;27;20571;-61
2022/05/24 10:10:33;;;;;;;6.10;4.97;;;;;;;21.31;47.64;100432.75;5135664;27;20059;-59
2022/05/24 10:13:12;;;;;;;6.28;5.57;;;;;;;21.34;47.09;100420.59;5134906;27;20058;-60
2022/05/24 10:15:45;;;;;;;5.53;4.72;;;;;;;21.32;47.14;100423.50;5135885;27;20043;-61
2022/05/24 10:18:33;;;;;;;5.70;5.20;;;;;;;21.32;46.70;100428.97;5135404;27;20114;-60
2022/05/24 10:21:05;;;;;;;6.47;5.30;;;;;;;21.35;46.61;100430.47;5135884;27;20050;-60
2022/05/24 10:24:06;;;;;;;7.50;6.72;;;;;;;21.38;46.86;100433.69;5135356;27;20500;-60
2022/05/24 10:27:03;;;;;;;7.65;7.05;;;;;;;21.49;46.77;100449.59;5134957;27;20035;-61
2022/05/24 10:29:49;;;;;;;7.60;6.90;;;;;;;21.55;46.18;100442.53;5134902;27;20035;-61
2022/05/24 10:39:11;;;;;;;9.35;8.45;;;;;;;21.73;46.24;100437.53;5100485;27;20137;-60
2022/05/24 10:41:46;;;;;;;8.45;7.32;;;;;;;21.75;46.10;100440.06;5134297;27;20058;-60
2022/05/24 10:44:31;;;;;;;;;;;;;;;21.70;45.72;100456.22;5135666;27;20370;-61
2022/05/24 10:47:06;;;;;;;7.95;7.30;;;;;;;21.66;45.76;100458.47;5135029;27;19919;-60
2022/05/24 10:49:56;;;;;;;9.35;7.50;;;;;;;21.61;46.02;100471.00;5134516;27;20040;-61
2022/05/24 10:52:26;;;;;;;8.27;7.50;;;;;;;21.59;45.87;100463.00;5134848;27;20035;-61
2022/05/24 10:55:22;;;;;;;8.10;7.25;;;;;;;21.48;45.36;100472.50;5134742;27;20386;-60
2022/05/24 10:58:03;;;;;;;8.02;7.22;;;;;;;21.47;45.42;100479.00;5125767;27;20485;-61
2022/05/24 11:00:36;;;;;;;6.25;5.05;;;;;;;21.40;45.22;100471.75;5133469;27;20047;-61
2022/05/24 11:03:12;;;;;;;5.20;4.15;;;;;;;21.32;45.21;100486.34;5116150;27;20043;-60
2022/05/24 11:06:06;;;;;;;6.55;4.57;;;;;;;21.24;45.34;100481.81;5134999;27;20043;-61
2022/05/24 11:08:39;;;;;;;4.95;4.43;;;;;;;21.19;45.36;100481.50;5133957;27;20050;-60
2022/05/24 11:11:26;;;;;;;4.82;4.00;;;;;;;21.18;45.08;100468.03;5134411;27;20497;-61
2022/05/24 11:14:11;;;;;;;5.68;3.97;;;;;;;21.24;45.36;100490.00;5133567;27;20039;-61
2022/05/24 11:16:46;;;;;;;5.03;4.53;;;;;;;21.36;45.38;100476.72;5134181;27;20047;-61
2022/05/24 11:19:16;;;;;;;4.00;3.70;;;;;;;21.45;45.44;100478.34;5134325;27;20035;-61
2022/05/24 11:22:08;;;;;;;5.03;4.20;;;;;;;21.53;45.39;100485.59;5134022;27;20057;-61
2022/05/24 11:24:51;;;;;;;3.78;3.47;;;;;;;21.63;45.50;100477.97;5133478;27;20043;-60
2022/05/24 11:27:26;;;;;;;4.70;4.30;;;;;;;21.76;45.56;100485.50;5133155;27;20039;-61
2022/05/24 11:29:57;;;;;;;7.88;4.45;;;;;;;21.94;45.40;100485.09;5133237;27;20400;-61
2022/05/24 11:32:37;;;;;;;5.32;4.30;;;;;;;22.10;44.95;100488.50;5133322;27;20035;-60
2022/05/24 11:35:06;;;;;;;4.25;2.90;;;;;;;22.30;44.88;100479.69;5133151;27;20489;-61
2022/05/24 11:37:36;;;;;;;3.95;2.53;;;;;;;22.41;44.43;100487.38;5112982;27;20039;-61
2022/05/24 11:40:31;;;;;;;3.25;1.67;;;;;;;22.42;43.82;100500.03;5112764;28;20294;-61
2022/05/24 11:43:19;;;;;;;3.90;1.98;;;;;;;22.44;43.44;100496.06;5112866;27;20067;-61
2022/05/24 11:45:47;;;;;;;2.35;1.88;;;;;;;22.52;43.63;100498.66;5081605;27;20071;-60
2022/05/24 11:48:14;;;;;;;3.65;2.85;;;;;;;22.61;43.29;100502.13;5132124;27;20044;-60
2022/05/24 11:50:44;;;;;;;3.17;2.65;;;;;;;22.74;43.56;100502.25;5132880;27;20035;-60
2022/05/24 11:53:40;;;;;;;5.30;2.75;;;;;;;22.90;43.64;100501.16;5132726;27;20036;-61
2022/05/24 11:56:10;;;;;;;3.65;3.35;;;;;;;23.13;43.42;100506.41;5133525;27;20069;-61
2022/05/24 11:58:37;;;;;;;4.25;3.85;;;;;;;23.28;43.38;100501.69;5133536;27;20031;-61
2022/05/24 12:01:34;;;;;;;3.63;3.33;;;;;;;23.42;42.79;100494.41;5132929;27;20397;-61
2022/05/24 12:09:58;;;;;;;4.75;2.78;;;;;;;23.49;42.00;100524.59;5133325;27;20144;-60
2022/05/24 12:12:34;;;;;;;1.50;1.00;;;;;;;23.34;41.46;100517.31;5133452;27;20051;-61
2022/05/24 12:15:47;;;;;;;2.50;1.00;;;;;;;23.13;41.27;100523.72;5132234;27;20039;-60
2022/05/24 12:18:20;;;;;;;3.47;1.58;;;;;;;22.97;41.29;100532.19;5098485;28;20047;-60
2022/05/24 12:20:47;;;;;;;1.95;1.50;;;;;;;22.81;40.84;100536.03;5115201;27;20046;-61
2022/05/24 12:23:29;;;;;;;3.25;1.95;;;;;;;22.65;41.09;100528.06;5132790;27;20051;-61
2022/05/24 12:26:06;;;;;;;3.00;2.63;;;;;;;22.67;41.25;100528.69;5132916;27;20043;-61
2022/05/24 12:28:33;;;;;;;3.15;2.50;;;;;;;22.72;41.86;100530.84;5133013;27;20039;-60
2022/05/24 12:31:07;;;;;;;4.68;3.40;;;;;;;22.87;41.68;100517.13;5132750;27;20493;-61
2022/05/24 12:33:59;;;;;;;5.10;3.95;;;;;;;23.01;42.08;100524.41;5132687;27;20043;-61
2022/05/24 12:36:39;;;;;;;4.28;3.97;;;;;;;23.17;41.89;100524.16;5132487;27;20073;-61